Flight Track Log - Related Links

Times and Time Zones

All times are in EDT time to prevent confusion due to time zone crossing. See the EGF4152 flight status page for this flight to view local times or setup timezone preferences in your user account.

Time Position Orientation Groundspeed Altitude Reporting Facility
EDT Latitude Longitude Course Direction KTS MPH feet Rate Location/Type
Tue 06:15:31 AM 42.2753 -85.5478 294° West 177 204 2,500  Level Chicago Center
Tue 06:16:31 AM 42.3164 -85.5586 349° North 192 221 4,300 1,934 Climbing Chicago Center
Tue 06:17:00 AM 42.3343 -85.8018 304° West  Level FlightAware Approximate
Tue 06:17:32 AM 42.3414 -85.6431 292° West 235 270 6,400  Level Chicago Center
Tue 06:18:00 AM 42.3670 -85.8840 304° West  Level FlightAware Approximate
Tue 06:18:32 AM 42.3653 -85.7314 290° West 249 287 8,900  Level Chicago Center
Tue 06:19:00 AM 42.4032 -85.9663 298° West  Level FlightAware Approximate
Tue 06:19:33 AM 42.3906 -85.8233 290° West 259 298 10,800  Level Chicago Center
Tue 06:20:00 AM 42.4342 -86.0524 294° West  Level FlightAware Approximate
Tue 06:20:34 AM 42.4192 -85.9292 290° West 293 337 11,800  Level Chicago Center
Tue 06:21:34 AM 42.4519 -86.0464 291° West 325 374 13,000 1,140 Climbing Chicago Center
Tue 06:22:35 AM 42.4789 -86.1681 287° West 335 386 14,100 492 Climbing Chicago Center
Tue 06:23:36 AM 42.4978 -86.2978 281° West 347 399 14,000 -50 Descending Chicago Center
Tue 06:24:36 AM 42.5172 -86.4250 282° West 342 394 14,000  Level Chicago Center
Tue 06:25:37 AM 42.5361 -86.5508 282° West 340 391 14,000  Level Chicago Center
Tue 06:26:37 AM 42.5569 -86.6772 283° West 342 394 14,000 -446 Level Chicago Center
Tue 06:27:38 AM 42.5436 -86.8050 262° West 356 410 13,100 -1,230 Descending Chicago Center
Tue 06:28:39 AM 42.5078 -86.9294 249° West 355 409 11,500 -1,388 Descending Chicago Center
Tue 06:29:39 AM 42.4686 -87.0656 249° West 322 371 10,300 -1,091 Descending Chicago Center
Tue 06:30:40 AM 42.4428 -87.1622 250° West 277 319 9,300 -885 Descending Chicago Center
Tue 06:31:41 AM 42.4139 -87.2550 247° West 271 312 8,500 -793 Descending Chicago Center
Tue 06:32:41 AM 42.3378 -87.2942 201° Southwest 293 337 7,700 -744 Descending Chicago Center
Tue 06:33:42 AM 42.2722 -87.3125 192° South 280 322 7,000 -344 Descending Chicago Center
Tue 06:34:43 AM 42.1886 -87.3628 204° Southwest 276 318 7,000  Level Chicago Center
Tue 06:35:43 AM 42.1178 -87.4022 202° Southwest 277 319 7,000  Level Chicago Center
Tue 06:36:44 AM 42.0469 -87.4408 202° Southwest 276 318 7,000 -344 Level Chicago Center
Tue 06:37:45 AM 41.9894 -87.4825 208° Southwest 245 282 6,300 -836 Descending Chicago Center
Tue 06:38:46 AM 41.9667 -87.5608 249° West 230 265 5,300 -1,091 Descending Chicago Center
Tue 06:39:46 AM 41.9689 -87.6411 272° West 218 251 4,100 -1,200 Descending Chicago Center

Login

Don't have an account? Register now (free) for customized features, flight alerts, and more!